Time;durP1;ratioP1;P1;durP2;ratioP2;P2;SDS_P1;SDS_P2;PMS_P1;PMS_P2;Temp;Humidity;BMP_temperature;BMP_pressure;BME280_temperature;BME280_humidity;BME280_pressure;Samples;Min_cycle;Max_cycle;Signal;HPM_P1;HPM_P2
2022/10/03 00:02:51;;;;;;;14.93;5.78;;;10.90;99.90;;;;;;5103061;27;20183;-63
2022/10/03 00:05:20;;;;;;;11.20;6.45;;;10.90;99.90;;;;;;5076078;28;20238;-63
2022/10/03 00:08:23;;;;;;;8.65;4.78;;;10.90;99.90;;;;;;5104689;28;20624;-63
2022/10/03 00:11:01;;;;;;;13.32;5.93;;;10.90;99.90;;;;;;5103397;27;20215;-63
2022/10/03 00:13:42;;;;;;;10.07;5.05;;;11.00;99.90;;;;;;5098723;28;20176;-62
2022/10/03 00:16:19;;;;;;;9.97;5.60;;;11.30;99.90;;;;;;5097664;28;20184;-63
2022/10/03 00:19:00;;;;;;;13.93;5.57;;;11.40;99.90;;;;;;5115333;27;20526;-63
2022/10/03 00:21:53;;;;;;;10.53;5.60;;;11.30;99.90;;;;;;5094049;28;20204;-64
2022/10/03 00:24:46;;;;;;;10.02;5.72;;;11.10;99.90;;;;;;5109397;27;20253;-64
2022/10/03 00:27:38;;;;;;;12.75;6.80;;;11.00;99.90;;;;;;5112141;27;20271;-65
2022/10/03 00:30:18;;;;;;;11.82;7.25;;;11.10;99.90;;;;;;5089633;27;20220;-64
2022/10/03 00:33:18;;;;;;;8.77;6.53;;;11.10;99.90;;;;;;5108689;27;20173;-65
2022/10/03 00:36:41;;;;;;;15.98;8.35;;;11.10;99.90;;;;;;5082465;27;20196;-65
2022/10/03 00:39:07;;;;;;;11.63;6.95;;;11.10;99.90;;;;;;5072033;28;20678;-65
2022/10/03 00:42:19;;;;;;;9.50;6.57;;;11.00;99.90;;;;;;5054248;28;20185;-65
2022/10/03 00:45:15;;;;;;;11.13;6.68;;;10.90;99.90;;;;;;5105167;28;20216;-65
2022/10/03 00:48:20;;;;;;;13.68;8.05;;;10.90;99.90;;;;;;5100996;27;20676;-64
2022/10/03 00:50:58;;;;;;;10.95;6.68;;;10.80;99.90;;;;;;5104286;27;20180;-65
2022/10/03 00:53:43;;;;;;;11.02;7.13;;;10.80;99.90;;;;;;5098351;27;20184;-65
2022/10/03 00:56:37;;;;;;;18.67;7.33;;;10.80;99.90;;;;;;5105044;27;20180;-64
2022/10/03 00:59:32;;;;;;;13.25;7.60;;;10.70;99.90;;;;;;5114330;27;20208;-65
2022/10/03 01:02:13;;;;;;;10.75;6.22;;;10.70;99.90;;;;;;5097355;28;20245;-65
2022/10/03 01:04:53;;;;;;;11.80;7.45;;;10.70;99.90;;;;;;5096385;28;20262;-65
2022/10/03 01:07:24;;;;;;;9.20;6.17;;;10.70;99.90;;;;;;5106030;28;20191;-64
2022/10/03 01:10:14;;;;;;;10.30;6.53;;;10.60;99.90;;;;;;5100539;28;20278;-65
2022/10/03 01:13:07;;;;;;;8.27;6.10;;;10.60;99.90;;;;;;5107589;28;20726;-64
2022/10/03 01:16:09;;;;;;;15.03;6.00;;;10.60;99.90;;;;;;5105222;28;20184;-64
2022/10/03 01:18:38;;;;;;;9.48;5.63;;;10.60;99.90;;;;;;5087229;28;20203;-65
2022/10/03 01:21:30;;;;;;;12.20;5.70;;;10.60;99.90;;;;;;5096676;28;20180;-65
2022/10/03 01:24:29;;;;;;;10.77;6.37;;;10.50;99.90;;;;;;5107321;27;20208;-64
2022/10/03 01:27:03;;;;;;;8.63;5.67;;;10.50;99.90;;;;;;5080016;28;20543;-65
2022/10/03 01:32:37;;;;;;;7.07;5.97;;;10.50;99.90;;;;;;5108919;28;20265;-65
2022/10/03 01:35:41;;;;;;;10.87;6.93;;;10.40;99.90;;;;;;5109104;27;20634;-65
2022/10/03 01:38:24;;;;;;;9.77;6.37;;;10.40;99.90;;;;;;5086257;28;20183;-64
2022/10/03 01:41:01;;;;;;;12.67;7.17;;;10.40;99.90;;;;;;5114369;27;20498;-64
2022/10/03 01:43:46;;;;;;;10.23;6.37;;;10.40;99.90;;;;;;5091606;28;20534;-64
2022/10/03 01:46:15;;;;;;;8.73;5.90;;;10.40;99.90;;;;;;5096023;27;20188;-65
2022/10/03 01:48:53;;;;;;;11.63;6.43;;;10.40;99.90;;;;;;5122388;27;20179;-65
2022/10/03 01:51:33;;;;;;;8.73;5.72;;;10.30;99.90;;;;;;5113846;27;20179;-64
2022/10/03 01:54:13;;;;;;;9.82;6.65;;;10.30;99.90;;;;;;5095231;28;20656;-64
2022/10/03 01:56:50;;;;;;;11.10;7.23;;;10.30;99.90;;;;;;5094601;28;20186;-64
2022/10/03 01:59:33;;;;;;;7.70;5.57;;;10.30;99.90;;;;;;5123728;27;20215;-64
2022/10/03 02:02:24;;;;;;;6.13;4.97;;;10.30;99.90;;;;;;5085940;28;20567;-64
2022/10/03 02:04:59;;;;;;;12.30;6.00;;;10.30;99.90;;;;;;5078569;28;20208;-64
2022/10/03 02:07:44;;;;;;;8.93;6.20;;;10.20;99.90;;;;;;5104593;28;20183;-64
2022/10/03 02:10:23;;;;;;;13.17;5.67;;;10.20;99.90;;;;;;5077922;27;20208;-64
2022/10/03 02:13:07;;;;;;;17.27;7.17;;;10.20;99.90;;;;;;5106497;27;20191;-64
2022/10/03 02:15:43;;;;;;;11.37;7.83;;;10.20;99.90;;;;;;5100858;28;20179;-64
2022/10/03 02:18:22;;;;;;;10.47;6.77;;;10.20;99.90;;;;;;5102098;28;20184;-64
2022/10/03 02:21:12;;;;;;;9.07;5.47;;;10.10;99.90;;;;;;5097810;28;20183;-64
2022/10/03 02:23:42;;;;;;;9.00;5.70;;;10.20;99.90;;;;;;5083659;28;20188;-64
2022/10/03 02:26:56;;;;;;;9.53;6.27;;;10.20;99.90;;;;;;5101161;27;20236;-64
2022/10/03 02:29:56;;;;;;;8.47;5.60;;;10.20;99.90;;;;;;5064743;28;20713;-64
2022/10/03 02:32:49;;;;;;;11.10;5.70;;;10.20;99.90;;;;;;5113188;27;20191;-65
2022/10/03 02:35:50;;;;;;;9.80;6.30;;;10.20;99.90;;;;;;5079908;28;20188;-64
2022/10/03 02:38:53;;;;;;;11.67;6.33;;;10.20;99.90;;;;;;5084165;28;20624;-64
2022/10/03 02:41:56;;;;;;;8.87;6.00;;;10.10;99.90;;;;;;5087654;28;20211;-64
2022/10/03 02:44:56;;;;;;;7.20;5.13;;;10.10;99.90;;;;;;5098537;28;20188;-65
2022/10/03 02:47:27;;;;;;;6.37;4.97;;;10.00;99.90;;;;;;5108693;28;20228;-64
2022/10/03 02:50:12;;;;;;;13.47;6.57;;;10.10;99.90;;;;;;5112964;27;20210;-64
2022/10/03 02:52:44;;;;;;;12.33;5.43;;;10.00;99.90;;;;;;5079471;28;20180;-64
2022/10/03 02:55:44;;;;;;;15.47;6.03;;;10.00;99.90;;;;;;5090591;28;20188;-64
2022/10/03 02:58:25;;;;;;;8.10;5.70;;;10.00;99.90;;;;;;5074846;28;20189;-65
2022/10/03 03:01:21;;;;;;;12.90;6.10;;;10.00;99.90;;;;;;5101742;28;20180;-65
2022/10/03 03:04:27;;;;;;;12.57;6.07;;;10.00;99.90;;;;;;5092916;28;20208;-65
2022/10/03 03:06:58;;;;;;;10.37;5.33;;;10.00;99.90;;;;;;5093450;28;20271;-65
2022/10/03 03:09:36;;;;;;;8.53;5.27;;;9.90;99.90;;;;;;5093688;28;20638;-64
2022/10/03 03:12:07;;;;;;;9.50;5.47;;;9.90;99.90;;;;;;5099986;28;20579;-65
2022/10/03 03:15:01;;;;;;;10.13;5.73;;;9.90;99.90;;;;;;5100478;28;20229;-65
2022/10/03 03:17:40;;;;;;;12.93;6.10;;;9.90;99.90;;;;;;5104255;28;20200;-65
2022/10/03 03:20:53;;;;;;;7.20;5.73;;;9.80;99.90;;;;;;5079074;28;20638;-65
2022/10/03 03:23:43;;;;;;;7.10;5.63;;;9.90;99.90;;;;;;5047978;28;20276;-65
2022/10/03 03:26:29;;;;;;;7.03;5.30;;;9.80;99.90;;;;;;5103587;28;20236;-65
2022/10/03 03:29:06;;;;;;;7.53;6.13;;;9.80;99.90;;;;;;5112456;28;20224;-65
2022/10/03 03:31:53;;;;;;;6.90;5.77;;;9.80;99.90;;;;;;5116946;28;20251;-65
2022/10/03 03:34:41;;;;;;;7.37;5.23;;;9.70;99.90;;;;;;5114611;28;20199;-65
2022/10/03 03:37:25;;;;;;;10.43;6.40;;;9.70;99.90;;;;;;5083094;28;20185;-65
2022/10/03 03:40:00;;;;;;;9.37;7.93;;;9.70;99.90;;;;;;5108959;28;20180;-65
2022/10/03 03:42:39;;;;;;;9.13;6.00;;;9.70;99.90;;;;;;5094092;28;20187;-65
2022/10/03 03:45:13;;;;;;;11.23;5.97;;;9.70;99.90;;;;;;5080873;28;20665;-65
2022/10/03 03:47:52;;;;;;;11.83;5.47;;;9.70;99.90;;;;;;5087401;28;20180;-65
2022/10/03 03:50:27;;;;;;;8.37;4.37;;;9.70;99.90;;;;;;5112921;28;20176;-65
2022/10/03 03:53:24;;;;;;;9.67;5.17;;;9.60;99.90;;;;;;5090459;28;20224;-65
2022/10/03 03:56:08;;;;;;;7.60;5.63;;;9.60;99.90;;;;;;5101876;28;20212;-64
2022/10/03 03:59:12;;;;;;;10.87;5.90;;;9.60;99.90;;;;;;5093953;28;20172;-64
2022/10/03 04:02:05;;;;;;;10.60;5.27;;;9.50;99.90;;;;;;5105614;27;20184;-64
2022/10/03 04:04:36;;;;;;;9.17;6.00;;;9.50;99.90;;;;;;5114562;28;20231;-64
2022/10/03 04:07:25;;;;;;;6.87;5.00;;;9.50;99.90;;;;;;5107763;27;20175;-64
2022/10/03 04:09:56;;;;;;;7.80;4.80;;;9.50;99.90;;;;;;5094508;28;20184;-64
2022/10/03 04:12:48;;;;;;;10.17;5.93;;;9.50;99.90;;;;;;5077892;28;20272;-64
2022/10/03 04:15:19;;;;;;;11.63;8.33;;;9.50;99.90;;;;;;5051473;28;20205;-65
2022/10/03 04:21:22;;;;;;;9.20;5.63;;;9.40;99.90;;;;;;5104177;27;20179;-65
2022/10/03 04:23:57;;;;;;;11.00;5.70;;;9.40;99.90;;;;;;5101701;27;20207;-65
2022/10/03 04:26:31;;;;;;;8.37;5.20;;;9.40;99.90;;;;;;5105150;28;20194;-65
2022/10/03 04:29:06;;;;;;;10.30;6.43;;;9.40;99.90;;;;;;5104324;28;20180;-65
2022/10/03 04:32:02;;;;;;;11.60;6.90;;;9.40;99.90;;;;;;5110506;27;20211;-65
2022/10/03 04:34:40;;;;;;;9.10;7.00;;;9.40;99.90;;;;;;5110917;27;20208;-65
2022/10/03 04:37:23;;;;;;;5.50;4.40;;;9.40;99.90;;;;;;5115428;27;20254;-65
2022/10/03 04:40:14;;;;;;;6.57;4.70;;;9.30;99.90;;;;;;5082298;27;20304;-65
2022/10/03 04:43:42;;;;;;;8.47;5.43;;;9.30;99.90;;;;;;5087833;28;20220;-65
2022/10/03 04:46:21;;;;;;;7.27;4.93;;;9.30;99.90;;;;;;5019155;28;20206;-65
2022/10/03 04:48:55;;;;;;;7.80;5.13;;;9.30;99.90;;;;;;5098113;28;20169;-65
2022/10/03 04:51:56;;;;;;;10.13;6.00;;;9.30;99.90;;;;;;5094827;28;20184;-65
2022/10/03 04:54:25;;;;;;;10.87;6.77;;;9.20;99.90;;;;;;5085152;27;20633;-65
2022/10/03 04:57:19;;;;;;;12.23;5.70;;;9.20;99.90;;;;;;5093687;28;20271;-65
2022/10/03 05:00:19;;;;;;;11.33;6.03;;;9.20;99.90;;;;;;5092447;28;20231;-65
2022/10/03 05:02:56;;;;;;;11.17;6.83;;;9.30;99.90;;;;;;5091524;28;20180;-65
2022/10/03 05:05:43;;;;;;;9.17;5.60;;;9.30;99.90;;;;;;5099269;27;20215;-65
2022/10/03 05:08:32;;;;;;;9.80;5.17;;;9.20;99.90;;;;;;5095571;28;20619;-65
2022/10/03 05:11:08;;;;;;;9.00;6.27;;;9.20;99.90;;;;;;5105359;27;20210;-65
2022/10/03 05:14:00;;;;;;;7.17;5.57;;;9.20;99.90;;;;;;5084140;28;20531;-65
2022/10/03 05:16:42;;;;;;;10.37;6.40;;;9.20;99.90;;;;;;5114909;27;20186;-65
2022/10/03 05:19:29;;;;;;;8.80;5.77;;;9.20;99.90;;;;;;5099101;27;20714;-65
2022/10/03 05:22:11;;;;;;;6.23;4.57;;;9.20;99.90;;;;;;5103474;27;20176;-65
2022/10/03 05:25:01;;;;;;;7.77;5.60;;;9.20;99.90;;;;;;5113253;27;20282;-65
2022/10/03 05:27:44;;;;;;;8.03;4.93;;;9.10;99.90;;;;;;5112165;27;20171;-65
2022/10/03 05:30:52;;;;;;;9.87;4.73;;;9.10;99.90;;;;;;5096281;28;20187;-65
2022/10/03 05:33:28;;;;;;;10.57;5.50;;;9.10;99.90;;;;;;5015219;28;20273;-65
2022/10/03 05:36:40;;;;;;;10.70;4.97;;;9.10;99.90;;;;;;5103037;28;20224;-65
2022/10/03 05:39:26;;;;;;;11.37;6.00;;;9.10;99.90;;;;;;5030385;28;20260;-65
2022/10/03 05:42:10;;;;;;;7.87;5.70;;;9.10;99.90;;;;;;5098339;28;20350;-63
2022/10/03 05:45:00;;;;;;;6.93;5.60;;;9.10;99.90;;;;;;5094162;28;20208;-65
2022/10/03 05:47:43;;;;;;;9.77;5.80;;;9.10;99.90;;;;;;5114646;27;20192;-66
2022/10/03 05:50:27;;;;;;;13.47;6.13;;;9.10;99.90;;;;;;5104281;27;20278;-66
2022/10/03 05:53:14;;;;;;;9.50;6.43;;;9.20;99.90;;;;;;5103242;27;20510;-66
2022/10/03 05:55:40;;;;;;;14.30;5.60;;;9.20;99.90;;;;;;5095816;27;20184;-65
2022/10/03 05:58:24;;;;;;;8.57;6.47;;;9.30;99.90;;;;;;5105879;27;20613;-65
2022/10/03 06:00:59;;;;;;;7.93;5.03;;;9.20;99.90;;;;;;5075499;28;20676;-65
2022/10/03 06:03:47;;;;;;;12.50;6.53;;;9.20;99.90;;;;;;5108061;27;20187;-65
2022/10/03 06:06:25;;;;;;;7.43;5.70;;;9.30;99.90;;;;;;5098917;28;20200;-65
2022/10/03 06:09:15;;;;;;;13.63;6.30;;;9.30;99.90;;;;;;5113872;28;20233;-65
2022/10/03 06:11:57;;;;;;;10.43;5.57;;;9.30;99.90;;;;;;5102369;28;20192;-65
2022/10/03 06:14:56;;;;;;;9.33;6.53;;;9.40;99.90;;;;;;5094478;28;20219;-65
2022/10/03 06:17:53;;;;;;;7.17;4.87;;;9.50;99.90;;;;;;5080094;27;20206;-66
2022/10/03 06:20:49;;;;;;;6.30;5.27;;;9.50;99.90;;;;;;5079996;28;20571;-65
2022/10/03 06:23:24;;;;;;;10.00;6.77;;;9.50;99.90;;;;;;5107274;27;20176;-65
2022/10/03 06:26:22;;;;;;;8.73;6.30;;;9.50;99.90;;;;;;5089014;28;20258;-65
2022/10/03 06:28:54;;;;;;;9.83;6.80;;;9.60;99.90;;;;;;5084024;28;20645;-65
2022/10/03 06:31:50;;;;;;;9.23;6.23;;;9.60;99.90;;;;;;5083846;28;20194;-66
2022/10/03 06:34:41;;;;;;;8.23;6.37;;;9.60;99.90;;;;;;5063488;27;20283;-66
2022/10/03 06:37:16;;;;;;;11.40;6.67;;;9.70;99.90;;;;;;5089660;27;20190;-66
2022/10/03 06:39:53;;;;;;;13.20;7.80;;;9.70;99.90;;;;;;5113401;28;20171;-65
2022/10/03 06:42:34;;;;;;;15.33;8.97;;;9.80;99.90;;;;;;5087922;28;20223;-65
2022/10/03 06:45:39;;;;;;;17.97;9.03;;;9.80;99.90;;;;;;5096213;28;20206;-65
2022/10/03 06:48:23;;;;;;;13.00;8.63;;;9.90;99.90;;;;;;5107903;28;20191;-65
2022/10/03 06:51:30;;;;;;;12.63;6.70;;;10.00;99.90;;;;;;5106565;27;20176;-65
2022/10/03 06:54:15;;;;;;;12.53;7.43;;;10.10;99.90;;;;;;5087844;28;20229;-65
2022/10/03 06:57:02;;;;;;;11.20;6.70;;;10.30;99.90;;;;;;5108054;28;20572;-65
2022/10/03 07:00:02;;;;;;;10.65;6.90;;;11.10;99.90;;;;;;5091886;28;20188;-65
2022/10/03 07:02:42;;;;;;;12.30;7.88;;;12.80;99.90;;;;;;5096361;28;20518;-64
2022/10/03 07:05:34;;;;;;;10.35;6.53;;;14.30;99.90;;;;;;5105136;28;20671;-64
2022/10/03 07:08:18;;;;;;;8.55;6.32;;;15.60;99.90;;;;;;5110645;28;20176;-64
2022/10/03 07:10:58;;;;;;;11.23;6.75;;;16.80;99.90;;;;;;5112613;28;20217;-64
2022/10/03 07:13:48;;;;;;;10.50;6.63;;;17.40;99.90;;;;;;5123786;28;20645;-64
2022/10/03 07:16:45;;;;;;;12.50;5.70;;;18.40;99.90;;;;;;5095054;28;20572;-65
2022/10/03 07:19:32;;;;;;;7.70;6.95;;;19.30;99.90;;;;;;5102445;28;20275;-64
2022/10/03 07:22:19;;;;;;;8.48;5.85;;;19.80;99.90;;;;;;5094644;28;20310;-65
2022/10/03 07:25:07;;;;;;;6.95;4.93;;;20.20;99.90;;;;;;5110285;28;20191;-65
2022/10/03 07:27:51;;;;;;;8.93;4.93;;;20.40;99.90;;;;;;5107656;28;20195;-65
2022/10/03 07:30:22;;;;;;;9.38;5.03;;;20.80;99.90;;;;;;5087324;28;20283;-65
2022/10/03 07:33:25;;;;;;;5.85;4.80;;;21.10;99.90;;;;;;5093913;28;20180;-65
2022/10/03 07:39:51;;;;;;;5.72;5.03;;;21.40;99.90;;;;;;5099801;27;20540;-65
2022/10/03 07:42:28;;;;;;;5.82;4.25;;;21.60;99.90;;;;;;5083173;28;20241;-66
2022/10/03 07:45:12;;;;;;;6.22;4.15;;;21.70;99.90;;;;;;5078218;28;20246;-66
2022/10/03 07:47:54;;;;;;;9.32;5.45;;;21.90;99.90;;;;;;5098218;28;20194;-66
2022/10/03 07:50:23;;;;;;;6.85;4.32;;;22.20;99.90;;;;;;5100210;27;20185;-66
2022/10/03 07:53:10;;;;;;;20.38;5.35;;;22.50;99.90;;;;;;5110174;27;20187;-66
2022/10/03 07:55:52;;;;;;;6.13;4.45;;;22.70;99.90;;;;;;5116611;27;20176;-66
2022/10/03 07:58:27;;;;;;;11.43;6.55;;;22.80;99.90;;;;;;5114894;27;20183;-66
2022/10/03 08:01:04;;;;;;;5.00;4.40;;;22.90;99.90;;;;;;5096284;28;20765;-66
2022/10/03 08:04:08;;;;;;;5.95;4.50;;;22.90;99.90;;;;;;5106571;27;20179;-66
2022/10/03 08:06:44;;;;;;;7.55;5.13;;;22.90;99.90;;;;;;5109752;27;20184;-66
2022/10/03 08:09:18;;;;;;;7.03;4.70;;;23.20;99.90;;;;;;5090258;28;20179;-65
2022/10/03 08:12:01;;;;;;;5.75;4.78;;;23.20;99.90;;;;;;5105353;27;20509;-65
2022/10/03 08:14:57;;;;;;;10.43;4.80;;;23.00;99.90;;;;;;5103311;27;20206;-66
2022/10/03 08:17:44;;;;;;;4.85;4.40;;;22.30;99.90;;;;;;5084677;28;20240;-66
2022/10/03 08:20:34;;;;;;;8.27;5.25;;;21.40;99.90;;;;;;5088647;28;20616;-66
2022/10/03 08:23:17;;;;;;;8.02;5.35;;;20.70;99.90;;;;;;5101627;28;20578;-66
2022/10/03 08:25:55;;;;;;;12.23;4.53;;;20.30;99.90;;;;;;5084123;28;20208;-66
2022/10/03 08:28:41;;;;;;;10.85;5.40;;;19.70;99.90;;;;;;5109386;27;20208;-66
2022/10/03 08:31:27;;;;;;;8.88;4.60;;;19.20;99.90;;;;;;5082311;28;20173;-65
2022/10/03 08:34:24;;;;;;;6.45;4.53;;;18.30;99.90;;;;;;5079639;28;20286;-65
2022/10/03 08:37:33;;;;;;;10.80;5.43;;;17.80;99.90;;;;;;5099129;27;20185;-65
2022/10/03 08:40:39;;;;;;;9.30;5.38;;;17.40;99.90;;;;;;5006013;28;20227;-65
2022/10/03 08:43:41;;;;;;;10.95;5.03;;;16.90;99.90;;;;;;4995555;28;20234;-65
2022/10/03 08:46:35;;;;;;;9.35;4.63;;;16.80;99.90;;;;;;5102417;27;20196;-66
2022/10/03 08:49:39;;;;;;;6.32;4.43;;;16.80;99.90;;;;;;5078918;28;20215;-65
2022/10/03 08:52:31;;;;;;;8.90;4.53;;;16.70;99.90;;;;;;5105504;28;20174;-65
2022/10/03 08:55:14;;;;;;;17.77;6.07;;;16.60;99.90;;;;;;5112315;28;20648;-65
2022/10/03 08:58:31;;;;;;;11.60;5.53;;;16.30;99.90;;;;;;5093707;27;20184;-67
2022/10/03 09:01:28;;;;;;;10.27;5.97;;;16.30;99.90;;;;;;5060725;27;20189;-65
2022/10/03 09:04:18;;;;;;;9.63;4.55;;;16.20;99.90;;;;;;5098603;28;20565;-67
2022/10/03 09:07:21;;;;;;;7.93;4.20;;;16.40;99.90;;;;;;5096361;28;20188;-66
2022/10/03 09:10:21;;;;;;;8.05;3.85;;;16.40;99.90;;;;;;5077362;28;20668;-66
2022/10/03 09:12:49;;;;;;;11.77;3.97;;;16.30;99.90;;;;;;5076812;28;20196;-67
2022/10/03 09:15:32;;;;;;;8.00;4.10;;;16.20;99.90;;;;;;5075890;28;20579;-66
2022/10/03 09:18:35;;;;;;;6.07;3.53;;;16.20;99.90;;;;;;5092883;27;20175;-67
2022/10/03 09:21:16;;;;;;;6.07;3.10;;;16.50;99.90;;;;;;5089972;28;20260;-66
2022/10/03 09:24:03;;;;;;;9.50;2.42;;;16.50;99.90;;;;;;5093631;28;20585;-66
2022/10/03 09:26:44;;;;;;;4.30;2.45;;;16.60;99.90;;;;;;5114772;28;20184;-66
2022/10/03 09:29:28;;;;;;;8.15;2.97;;;16.70;99.90;;;;;;5092115;28;20219;-66
2022/10/03 09:32:41;;;;;;;11.68;3.60;;;17.00;99.90;;;;;;5085884;28;20194;-66
2022/10/03 09:35:48;;;;;;;3.20;2.30;;;16.90;99.90;;;;;;5035099;28;20650;-66
2022/10/03 09:38:17;;;;;;;8.20;3.00;;;16.90;99.90;;;;;;5094565;28;20210;-66
2022/10/03 09:41:03;;;;;;;3.35;2.30;;;16.80;99.90;;;;;;5085011;28;20653;-66
2022/10/03 09:43:58;;;;;;;5.85;2.65;;;16.90;99.90;;;;;;5114940;27;20191;-66
2022/10/03 09:46:35;;;;;;;5.03;2.63;;;16.80;99.90;;;;;;5102612;27;20176;-65
2022/10/03 09:49:15;;;;;;;6.45;2.33;;;16.90;99.90;;;;;;5103546;28;20180;-65
2022/10/03 09:51:54;;;;;;;6.70;2.70;;;16.90;99.90;;;;;;5111774;28;20176;-65
2022/10/03 09:54:34;;;;;;;4.63;2.92;;;16.90;99.90;;;;;;5093223;28;20179;-65
2022/10/03 09:57:19;;;;;;;9.07;2.00;;;17.10;99.90;;;;;;5113798;28;20176;-65
2022/10/03 09:59:59;;;;;;;2.50;1.70;;;17.40;99.90;;;;;;5085313;27;20185;-65
2022/10/03 10:02:58;;;;;;;8.05;2.50;;;17.50;99.90;;;;;;5103510;28;20192;-65
2022/10/03 10:05:48;;;;;;;6.53;2.30;;;17.50;99.90;;;;;;5095795;28;20287;-66
2022/10/03 10:08:37;;;;;;;8.07;2.55;;;17.60;99.90;;;;;;5089237;28;20198;-66
2022/10/03 10:11:25;;;;;;;4.80;2.15;;;17.60;99.90;;;;;;5093904;28;20223;-66
2022/10/03 10:14:29;;;;;;;4.57;2.67;;;17.60;99.90;;;;;;5103743;27;20171;-66
2022/10/03 10:17:45;;;;;;;9.18;2.75;;;17.80;99.90;;;;;;5093259;28;20567;-66
2022/10/03 10:20:33;;;;;;;9.75;2.35;;;17.90;99.90;;;;;;5025166;28;20183;-67
2022/10/03 10:23:33;;;;;;;5.80;2.58;;;18.30;99.90;;;;;;5026230;28;20190;-66
2022/10/03 10:26:08;;;;;;;5.00;2.55;;;18.40;99.90;;;;;;5051026;28;20698;-66
2022/10/03 10:28:52;;;;;;;5.63;2.88;;;18.60;99.90;;;;;;5114106;28;20238;-66
2022/10/03 10:31:46;;;;;;;9.30;2.90;;;18.40;99.90;;;;;;5099713;27;20280;-66
2022/10/03 10:35:06;;;;;;;3.05;2.50;;;18.60;99.90;;;;;;5091124;28;20588;-66
2022/10/03 10:37:46;;;;;;;4.63;2.53;;;18.90;99.90;;;;;;5110327;27;20546;-66
2022/10/03 10:40:37;;;;;;;3.20;2.60;;;19.00;99.90;;;;;;5110130;28;21013;-66
2022/10/03 10:43:37;;;;;;;9.30;2.25;;;19.00;99.90;;;;;;5102305;28;20176;-66
2022/10/03 10:46:23;;;;;;;2.83;1.65;;;19.30;99.90;;;;;;5113284;27;20252;-66
2022/10/03 10:49:39;;;;;;;5.03;1.75;;;19.60;99.90;;;;;;5085019;28;20191;-66
2022/10/03 10:52:32;;;;;;;5.45;1.30;;;19.30;99.90;;;;;;5055425;28;20326;-66
2022/10/03 10:55:41;;;;;;;3.35;1.42;;;19.00;99.90;;;;;;5111964;28;20219;-66
2022/10/03 10:58:19;;;;;;;3.08;1.40;;;19.20;99.90;;;;;;5067299;28;20196;-66
2022/10/03 11:00:51;;;;;;;2.92;1.10;;;19.50;99.90;;;;;;5113634;28;20224;-66
2022/10/03 11:03:42;;;;;;;4.15;1.48;;;19.50;99.90;;;;;;5094430;28;20188;-66
2022/10/03 11:06:21;;;;;;;2.55;2.35;;;19.50;99.90;;;;;;5087722;28;20652;-66
2022/10/03 11:08:59;;;;;;;3.20;1.95;;;19.30;99.90;;;;;;5097037;28;20192;-66
2022/10/03 11:11:34;;;;;;;2.58;1.42;;;19.40;99.90;;;;;;5104759;27;20286;-66
2022/10/03 11:14:23;;;;;;;9.20;3.65;;;19.50;99.90;;;;;;5083708;28;20183;-66
2022/10/03 11:17:10;;;;;;;4.97;2.03;;;19.40;99.90;;;;;;5114351;27;20184;-66
2022/10/03 11:20:26;;;;;;;3.40;1.50;;;19.40;99.90;;;;;;5099323;28;20682;-66
2022/10/03 11:23:11;;;;;;;3.65;1.75;;;19.70;99.90;;;;;;5087081;28;20249;-66
2022/10/03 11:25:43;;;;;;;14.07;1.83;;;19.80;99.90;;;;;;5078632;27;20208;-66
2022/10/03 11:28:46;;;;;;;1.52;1.42;;;19.40;99.90;;;;;;5092892;27;20211;-66
2022/10/03 11:31:33;;;;;;;5.57;2.15;;;19.20;99.90;;;;;;5117227;27;20176;-66
2022/10/03 11:34:20;;;;;;;6.55;2.63;;;19.50;99.90;;;;;;5116834;27;20192;-66
2022/10/03 11:37:04;;;;;;;4.38;3.53;;;19.60;99.90;;;;;;5098525;28;20232;-66
2022/10/03 11:39:59;;;;;;;7.15;1.58;;;19.60;99.90;;;;;;5086550;28;20204;-67
2022/10/03 11:42:40;;;;;;;3.45;1.50;;;19.30;99.90;;;;;;5099217;28;20189;-67
2022/10/03 11:45:24;;;;;;;3.42;2.20;;;19.00;99.90;;;;;;5117033;27;20233;-66
2022/10/03 11:47:54;;;;;;;7.57;2.13;;;18.80;99.90;;;;;;5123258;27;20188;-68
2022/10/03 11:50:41;;;;;;;6.45;2.35;;;18.80;99.90;;;;;;5087936;28;20237;-66
2022/10/03 11:53:15;;;;;;;5.82;1.75;;;18.90;99.90;;;;;;5110557;28;20566;-67
2022/10/03 11:56:01;;;;;;;3.67;1.85;;;19.00;99.90;;;;;;5098111;28;20601;-66
2022/10/03 11:58:47;;;;;;;9.38;2.80;;;18.90;99.90;;;;;;5089766;28;20176;-66
2022/10/03 12:01:29;;;;;;;7.38;2.03;;;18.70;99.90;;;;;;5110856;27;20183;-66
2022/10/03 12:04:09;;;;;;;2.55;2.15;;;18.40;99.90;;;;;;5088200;28;20184;-65
2022/10/03 12:10:02;;;;;;;6.88;2.22;;;18.30;99.90;;;;;;5101653;27;20245;-65
2022/10/03 12:12:44;;;;;;;10.45;2.40;;;18.30;99.90;;;;;;5105371;27;20175;-65
2022/10/03 12:15:19;;;;;;;9.27;2.72;;;18.30;99.90;;;;;;5102799;28;20204;-65
2022/10/03 12:18:32;;;;;;;2.03;1.92;;;18.50;99.90;;;;;;5103247;28;20321;-65
2022/10/03 12:21:30;;;;;;;4.97;1.38;;;18.70;99.90;;;;;;5041567;28;20653;-65
2022/10/03 12:24:19;;;;;;;3.33;1.85;;;18.80;99.90;;;;;;5083579;28;20180;-66
2022/10/03 12:26:51;;;;;;;3.65;1.80;;;18.50;99.90;;;;;;5107258;28;20255;-66
2022/10/03 12:29:20;;;;;;;3.67;1.65;;;18.70;99.90;;;;;;5085161;28;20208;-66
2022/10/03 12:32:06;;;;;;;1.23;1.00;;;18.90;99.90;;;;;;5096343;27;20191;-65
2022/10/03 12:34:48;;;;;;;1.73;1.33;;;19.10;99.90;;;;;;5077576;28;20526;-65
2022/10/03 12:37:25;;;;;;;3.63;1.80;;;19.30;99.90;;;;;;5091278;27;20543;-66
2022/10/03 12:40:04;;;;;;;7.63;1.67;;;19.30;99.90;;;;;;5105105;27;20220;-66
2022/10/03 12:42:58;;;;;;;4.75;1.58;;;19.20;99.90;;;;;;5104442;27;20263;-66
2022/10/03 12:45:51;;;;;;;2.17;1.67;;;19.50;99.90;;;;;;5084457;28;20291;-65
2022/10/03 12:48:36;;;;;;;8.27;1.75;;;19.80;99.90;;;;;;5091401;28;20200;-65
2022/10/03 12:51:30;;;;;;;3.75;2.05;;;19.90;99.90;;;;;;5115369;27;20270;-65
2022/10/03 12:54:18;;;;;;;3.22;1.65;;;20.10;99.90;;;;;;5096725;27;20189;-65
2022/10/03 12:57:00;;;;;;;5.35;3.58;;;19.90;99.90;;;;;;5105929;28;20175;-65
2022/10/03 12:59:41;;;;;;;2.22;1.25;;;19.90;99.90;;;;;;5117354;27;20241;-65
2022/10/03 13:02:23;;;;;;;5.78;1.73;;;19.90;99.90;;;;;;5111593;27;20232;-65
2022/10/03 13:05:17;;;;;;;3.58;1.20;;;20.00;99.90;;;;;;5097887;27;20232;-65
2022/10/03 13:07:52;;;;;;;3.92;2.75;;;19.90;99.90;;;;;;5110970;27;20184;-65
2022/10/03 13:10:41;;;;;;;4.00;1.65;;;19.60;99.90;;;;;;5096570;28;20191;-65
2022/10/03 13:13:16;;;;;;;4.47;2.20;;;19.30;99.90;;;;;;5103585;28;20709;-65
2022/10/03 13:16:07;;;;;;;2.45;0.93;;;19.30;99.90;;;;;;5127857;27;20303;-65
2022/10/03 13:18:59;;;;;;;2.10;1.00;;;19.30;99.90;;;;;;5097489;28;20520;-64
2022/10/03 13:21:43;;;;;;;1.33;1.20;;;19.40;99.90;;;;;;5103055;28;20667;-65
2022/10/03 13:24:24;;;;;;;1.30;1.00;;;19.50;99.90;;;;;;5102228;27;20242;-64
2022/10/03 13:26:49;;;;;;;5.10;1.80;;;19.40;99.90;;;;;;5087110;28;20185;-64
2022/10/03 13:29:31;;;;;;;4.55;1.35;;;19.30;99.90;;;;;;5103661;28;20583;-64
2022/10/03 13:32:26;;;;;;;2.40;1.23;;;19.10;99.90;;;;;;5082552;28;20185;-65
2022/10/03 13:38:18;;;;;;;2.15;0.90;;;19.50;99.90;;;;;;5122231;27;20181;-65
2022/10/03 13:41:02;;;;;;;1.65;1.02;;;19.70;99.90;;;;;;5103026;27;20184;-66
2022/10/03 13:43:35;;;;;;;0.75;0.75;;;19.70;99.90;;;;;;5105744;27;20172;-65
2022/10/03 13:46:07;;;;;;;1.50;1.13;;;19.70;99.90;;;;;;5099109;28;20244;-65
2022/10/03 13:48:34;;;;;;;4.53;1.23;;;19.70;99.90;;;;;;5107063;27;20181;-65
2022/10/03 13:51:19;;;;;;;3.33;1.10;;;19.80;99.90;;;;;;5101563;28;20711;-66
2022/10/03 13:54:08;;;;;;;5.10;1.10;;;20.00;99.90;;;;;;5088796;28;20195;-64
2022/10/03 13:56:43;;;;;;;1.95;1.00;;;20.10;99.90;;;;;;5110419;28;20176;-64
2022/10/03 13:59:36;;;;;;;1.27;1.13;;;20.10;99.90;;;;;;5095796;28;20240;-65
2022/10/03 14:02:38;;;;;;;2.70;1.15;;;20.10;99.90;;;;;;5078848;28;20195;-64
2022/10/03 14:05:28;;;;;;;2.50;0.80;;;20.10;99.90;;;;;;5108784;28;20384;-64
2022/10/03 14:08:03;;;;;;;1.58;1.10;;;20.10;99.90;;;;;;5107759;27;20652;-65
2022/10/03 14:11:16;;;;;;;0.93;0.80;;;20.20;99.90;;;;;;5112093;28;20657;-64
2022/10/03 14:13:52;;;;;;;3.53;1.27;;;20.50;99.90;;;;;;5111389;27;20199;-64
2022/10/03 14:16:31;;;;;;;3.65;0.95;;;20.50;99.90;;;;;;5100207;28;20187;-65
2022/10/03 14:19:38;;;;;;;3.78;1.20;;;20.50;99.90;;;;;;5080928;28;20183;-64
2022/10/03 14:22:37;;;;;;;1.30;1.20;;;20.30;99.90;;;;;;4999681;28;20182;-65
2022/10/03 14:25:23;;;;;;;2.95;1.05;;;20.10;99.90;;;;;;5010611;28;20664;-66
2022/10/03 14:27:53;;;;;;;2.03;1.23;;;20.00;99.90;;;;;;5092660;28;20283;-66
2022/10/03 14:30:20;;;;;;;3.97;1.55;;;20.10;99.90;;;;;;5095623;27;20513;-65
2022/10/03 14:32:58;;;;;;;1.17;0.60;;;20.10;99.90;;;;;;5111421;27;20180;-66
2022/10/03 14:36:00;;;;;;;2.45;0.77;;;20.30;99.90;;;;;;5088413;28;20219;-66
2022/10/03 14:39:01;;;;;;;0.85;0.85;;;20.20;99.90;;;;;;5110914;28;20644;-65
2022/10/03 14:42:07;;;;;;;3.10;2.17;;;20.20;99.90;;;;;;5121993;27;20183;-65
2022/10/03 14:44:45;;;;;;;4.15;1.02;;;19.90;99.90;;;;;;5053720;28;20279;-65